createdAt,value
2019-05-20T00:03:52.037Z,99737.91
2019-05-20T00:08:58.035Z,99735.01
2019-05-20T00:14:04.138Z,99726.22
2019-05-20T00:19:10.150Z,99728.70
2019-05-20T00:24:16.224Z,99723.22
2019-05-20T00:29:22.300Z,99714.31
2019-05-20T00:34:35.330Z,99694.84
2019-05-20T00:39:35.341Z,99694.75
2019-05-20T00:44:41.652Z,99695.95
2019-05-20T00:49:47.576Z,99684.27
2019-05-20T00:54:54.097Z,99692.35
2019-05-20T01:00:00.070Z,99689.58
2019-05-20T01:05:06.659Z,99691.77
2019-05-20T01:10:13.513Z,99701.19
2019-05-20T01:15:20.136Z,99681.20
2019-05-20T01:20:26.314Z,99686.59
2019-05-20T01:25:32.384Z,99678.30
2019-05-20T01:30:38.277Z,99676.96
2019-05-20T01:35:44.117Z,99673.72
2019-05-20T01:40:50.092Z,99678.80
2019-05-20T01:45:56.062Z,99678.48
2019-05-20T01:51:02.033Z,99672.50
2019-05-20T01:56:08.107Z,99662.97
2019-05-20T02:01:13.977Z,99663.38
2019-05-20T02:06:20.055Z,99659.05
2019-05-20T02:11:26.123Z,99647.53
2019-05-20T02:16:32.191Z,99668.67
2019-05-20T02:21:38.273Z,99661.11
2019-05-20T02:26:44.340Z,99656.98
2019-05-20T02:31:50.412Z,99662.16
2019-05-20T02:36:56.391Z,99667.84
2019-05-20T02:42:02.458Z,99662.66
2019-05-20T02:47:08.328Z,99664.52
2019-05-20T02:52:14.297Z,99653.67
2019-05-20T02:57:20.987Z,99650.56
2019-05-20T03:02:26.957Z,99649.42
2019-05-20T03:07:32.938Z,99646.81
2019-05-20T03:12:38.900Z,99653.66
2019-05-20T03:17:44.773Z,99652.59
2019-05-20T03:22:50.737Z,99652.50
2019-05-20T03:27:57.631Z,99643.87
2019-05-20T03:33:03.819Z,99640.22
2019-05-20T03:38:10.598Z,99634.41
2019-05-20T03:43:16.669Z,99637.39
2019-05-20T03:48:22.641Z,99635.08
2019-05-20T03:53:28.720Z,99638.98
2019-05-20T03:58:34.992Z,99633.42
2019-05-20T04:03:40.965Z,99619.36
2019-05-20T04:08:47.043Z,99617.31
2019-05-20T04:13:53.010Z,99613.22
2019-05-20T04:18:58.974Z,99619.84
2019-05-20T04:24:05.551Z,99619.67
2019-05-20T04:29:12.151Z,99621.88
2019-05-20T04:34:18.130Z,99615.28
2019-05-20T04:39:24.192Z,99612.20
2019-05-20T04:44:30.181Z,99605.68
2019-05-20T04:49:36.138Z,99600.91
2019-05-20T04:54:42.207Z,99598.53
2019-05-20T04:59:48.283Z,99602.55
2019-05-20T05:04:54.265Z,99608.09
2019-05-20T05:10:00.434Z,99592.33
2019-05-20T05:15:11.454Z,99584.17
2019-05-20T05:20:18.769Z,99587.73
2019-05-20T05:25:26.529Z,99586.80
2019-05-20T05:30:32.640Z,99598.16
2019-05-20T05:35:52.273Z,99599.39
2019-05-20T05:40:45.546Z,99598.82
2019-05-20T05:45:51.592Z,99601.44
2019-05-20T05:50:57.717Z,99593.79
2019-05-20T05:56:03.892Z,99596.76
2019-05-20T06:01:09.861Z,99596.70
2019-05-20T06:06:15.834Z,99593.28
2019-05-20T06:11:21.836Z,99595.56
2019-05-20T06:16:36.656Z,99596.87
2019-05-20T06:21:35.590Z,99582.93
2019-05-20T06:26:41.665Z,99593.08
2019-05-20T06:31:47.936Z,99605.25
2019-05-20T06:36:55.913Z,99596.44
2019-05-20T06:42:01.930Z,99585.81
2019-05-20T06:47:08.000Z,99588.89
2019-05-20T06:52:14.083Z,99590.05
2019-05-20T06:57:20.119Z,99583.45
2019-05-20T07:02:26.848Z,99587.66
2019-05-20T07:07:32.913Z,99580.59
2019-05-20T07:12:41.587Z,99580.22
2019-05-20T07:17:45.665Z,99575.47
2019-05-20T07:22:55.742Z,99565.62
2019-05-20T07:27:59.870Z,99546.13
2019-05-20T07:33:06.019Z,99548.96
2019-05-20T07:38:11.763Z,99542.11
2019-05-20T07:43:17.883Z,99537.05
2019-05-20T07:48:24.726Z,99537.20
2019-05-20T07:53:32.489Z,99538.09
2019-05-20T07:58:38.778Z,99543.32
2019-05-20T08:03:44.741Z,99547.77
2019-05-20T08:08:51.146Z,99549.64
2019-05-20T08:13:57.084Z,99551.23
2019-05-20T08:19:03.160Z,99544.23
2019-05-20T08:24:09.365Z,99528.19
2019-05-20T08:29:17.048Z,99525.35
2019-05-20T08:34:23.344Z,99523.19
2019-05-20T08:39:30.839Z,99528.34
2019-05-20T08:44:36.868Z,99515.89
2019-05-20T08:49:43.483Z,99503.66
2019-05-20T08:54:50.184Z,99493.31
2019-05-20T08:59:56.148Z,99484.09
2019-05-20T09:05:02.147Z,99485.21
2019-05-20T09:10:08.827Z,99486.30
2019-05-20T09:15:15.657Z,99483.03
2019-05-20T09:20:22.119Z,99478.19
2019-05-20T09:25:33.284Z,99476.00
2019-05-20T09:30:39.520Z,99483.61
2019-05-20T09:35:47.181Z,99476.27
2019-05-20T09:40:53.441Z,99467.26
2019-05-20T09:46:07.706Z,99467.13
2019-05-20T09:51:07.334Z,99465.78
2019-05-20T09:56:13.504Z,99465.78
2019-05-20T10:01:19.519Z,99466.96
2019-05-20T10:06:25.575Z,99461.88
2019-05-20T10:11:31.765Z,99461.53
2019-05-20T10:16:37.701Z,99448.35
2019-05-20T10:21:43.954Z,99462.22
2019-05-20T10:26:49.947Z,99451.30
2019-05-20T10:31:56.124Z,99460.80
2019-05-20T10:37:03.532Z,99456.91
2019-05-20T10:42:09.500Z,99459.72
2019-05-20T10:47:15.588Z,99460.33
2019-05-20T10:52:22.974Z,99460.98
2019-05-20T10:57:28.961Z,99459.12
2019-05-20T11:02:35.038Z,99463.42
2019-05-20T11:07:41.358Z,99450.51
2019-05-20T11:12:47.489Z,99454.47
2019-05-20T11:17:53.647Z,99464.35
2019-05-20T11:23:01.171Z,99467.77
2019-05-20T11:28:11.678Z,99465.85
2019-05-20T11:33:15.753Z,99462.63
2019-05-20T11:38:22.049Z,99462.28
2019-05-20T11:43:28.439Z,99452.97
2019-05-20T11:48:34.892Z,99458.56
2019-05-20T11:53:40.969Z,99463.27
2019-05-20T11:58:47.075Z,99464.47
2019-05-20T12:03:53.213Z,99453.27
2019-05-20T12:08:59.505Z,99447.67
2019-05-20T12:14:06.184Z,99442.96
2019-05-20T12:19:12.163Z,99439.89
2019-05-20T12:24:18.231Z,99437.51
2019-05-20T12:29:24.305Z,99431.53
2019-05-20T12:34:30.373Z,99429.48
2019-05-20T12:39:36.374Z,99413.13
2019-05-20T12:44:42.835Z,99422.14
2019-05-20T12:49:49.012Z,99428.66
2019-05-20T12:55:07.050Z,99428.61
2019-05-20T13:00:03.325Z,99422.69
2019-05-20T13:05:10.408Z,99430.48
2019-05-20T13:10:29.178Z,99418.86
2019-05-20T13:15:25.318Z,99424.37
2019-05-20T13:20:31.543Z,99404.47
2019-05-20T13:25:37.763Z,99407.81
2019-05-20T13:30:43.943Z,99400.43
2019-05-20T13:35:50.226Z,99421.69
2019-05-20T13:40:56.289Z,99422.78
2019-05-20T13:46:02.466Z,99429.59
2019-05-20T13:51:08.742Z,99421.66
2019-05-20T13:56:15.017Z,99415.38
2019-05-20T14:01:21.198Z,99400.66
2019-05-20T14:06:28.918Z,99383.22
2019-05-20T14:11:35.035Z,99380.51
2019-05-20T14:16:41.373Z,99375.61
2019-05-20T14:21:47.781Z,99354.34
2019-05-20T14:26:53.942Z,99344.49
2019-05-20T14:31:59.989Z,99327.06
2019-05-20T14:37:06.303Z,99300.70
2019-05-20T14:42:12.625Z,99300.20
2019-05-20T14:47:18.845Z,99290.72
2019-05-20T14:52:25.332Z,99300.95
2019-05-20T14:57:31.592Z,99298.98
2019-05-20T15:02:37.879Z,99314.23
2019-05-20T15:07:44.262Z,99329.62
2019-05-20T15:12:51.091Z,99341.44
2019-05-20T15:17:57.518Z,99343.11
2019-05-20T15:23:03.700Z,99352.39
2019-05-20T15:28:10.181Z,99365.17
2019-05-20T15:33:16.350Z,99371.26
2019-05-20T15:38:22.422Z,99375.25
2019-05-20T15:43:28.852Z,99381.27
2019-05-20T15:48:34.830Z,99387.59
2019-05-20T15:53:40.931Z,99393.95
2019-05-20T15:58:47.223Z,99384.70
2019-05-20T16:03:53.855Z,99383.20
2019-05-20T16:09:00.191Z,99368.27
2019-05-20T16:14:06.844Z,99381.19
2019-05-20T16:19:12.955Z,99382.91
2019-05-20T16:24:19.046Z,99380.76
2019-05-20T16:29:25.325Z,99384.63
2019-05-20T16:34:31.605Z,99373.18
2019-05-20T16:39:37.762Z,99364.42
2019-05-20T16:44:44.078Z,99365.50
2019-05-20T16:49:50.144Z,99358.17
2019-05-20T16:54:56.160Z,99352.72
2019-05-20T17:00:02.261Z,99348.88
2019-05-20T17:05:09.844Z,99333.34
2019-05-20T17:10:16.365Z,99332.77
2019-05-20T17:15:23.029Z,99330.58
2019-05-20T17:20:29.020Z,99342.53
2019-05-20T17:25:35.139Z,99366.47
2019-05-20T17:30:45.548Z,99381.33
2019-05-20T17:35:49.290Z,99400.41
2019-05-20T17:40:55.704Z,99406.41
2019-05-20T17:46:01.731Z,99404.73
2019-05-20T17:51:08.470Z,99398.41
2019-05-20T17:56:14.796Z,99410.39
2019-05-20T18:01:20.869Z,99407.11
2019-05-20T18:06:26.747Z,99416.04
2019-05-20T18:11:32.814Z,99414.05
2019-05-20T18:16:39.176Z,99413.43
2019-05-20T18:21:45.314Z,99408.39
2019-05-20T18:26:52.492Z,99403.14
2019-05-20T18:31:58.747Z,99413.41
2019-05-20T18:37:04.786Z,99413.02
2019-05-20T18:42:11.500Z,99413.45
2019-05-20T18:47:17.702Z,99422.36
2019-05-20T18:52:23.915Z,99419.57
2019-05-20T18:57:30.042Z,99428.91
2019-05-20T19:02:36.209Z,99431.84
2019-05-20T19:07:42.732Z,99442.23
2019-05-20T19:12:48.999Z,99442.31
2019-05-20T19:17:55.447Z,99448.73
2019-05-20T19:23:01.598Z,99455.57
2019-05-20T19:28:07.870Z,99457.79
2019-05-20T19:33:14.917Z,99470.78
2019-05-20T19:38:21.087Z,99468.58
2019-05-20T19:43:27.045Z,99456.16
2019-05-20T19:48:33.053Z,99463.26
2019-05-20T19:53:39.102Z,99460.75
2019-05-20T19:58:45.415Z,99454.02
2019-05-20T20:03:51.442Z,99451.56
2019-05-20T20:08:57.612Z,99451.88
2019-05-20T20:14:03.788Z,99442.04
2019-05-20T20:19:10.068Z,99438.86
2019-05-20T20:24:16.143Z,99438.30
2019-05-20T20:29:22.226Z,99432.94
2019-05-20T20:34:30.700Z,99436.48
2019-05-20T20:39:36.719Z,99426.08
2019-05-20T20:44:42.788Z,99417.67
2019-05-20T20:49:48.760Z,99418.78
2019-05-20T20:54:54.937Z,99407.72
2019-05-20T21:00:00.699Z,99413.97
2019-05-20T21:05:07.797Z,99413.59
2019-05-20T21:10:14.292Z,99408.07
2019-05-20T21:15:20.353Z,99410.72
2019-05-20T21:20:26.426Z,99411.91
2019-05-20T21:25:32.398Z,99412.27
2019-05-20T21:30:38.369Z,99418.73
2019-05-20T21:35:45.528Z,99412.34
2019-05-20T21:40:51.684Z,99413.20
2019-05-20T21:45:57.614Z,99420.99
2019-05-20T21:51:03.684Z,99418.39
2019-05-20T21:56:09.557Z,99416.27
2019-05-20T22:01:15.557Z,99407.28
2019-05-20T22:06:21.700Z,99408.02
2019-05-20T22:11:27.670Z,99415.50
2019-05-20T22:16:33.848Z,99425.82
2019-05-20T22:21:41.967Z,99437.94
2019-05-20T22:26:47.939Z,99432.92
2019-05-20T22:31:53.905Z,99432.50
2019-05-20T22:36:59.881Z,99443.51
2019-05-20T22:42:05.954Z,99441.56
2019-05-20T22:47:12.034Z,99441.66
2019-05-20T22:52:18.034Z,99443.02
2019-05-20T22:57:23.980Z,99446.99
2019-05-20T23:02:30.046Z,99453.18
2019-05-20T23:07:35.950Z,99463.42
2019-05-20T23:12:41.904Z,99467.97
2019-05-20T23:17:47.865Z,99468.80
2019-05-20T23:22:53.920Z,99474.70
2019-05-20T23:27:59.828Z,99468.28
2019-05-20T23:33:05.769Z,99466.19
2019-05-20T23:38:11.746Z,99453.30
2019-05-20T23:43:17.811Z,99457.89
2019-05-20T23:48:23.876Z,99455.42
2019-05-20T23:53:29.954Z,99460.03
2019-05-20T23:58:35.822Z,99448.45
